Time;durP1;ratioP1;P1;durP2;ratioP2;P2;SDS_P1;SDS_P2;PMS_P1;PMS_P2;Temp;Humidity;BMP_temperature;BMP_pressure;BME280_temperature;BME280_humidity;BME280_pressure;Samples;Min_cycle;Max_cycle;Signal;HPM_P1;HPM_P2
2023/10/18 00:01:06;;;;;;;28.33;26.23;;;;;;;;;;5070572;28;20438;-79
2023/10/18 00:03:36;;;;;;;28.53;26.33;;;;;;;;;;5070314;28;20208;-78
2023/10/18 00:06:11;;;;;;;28.23;26.13;;;;;;;;;;5069214;28;20954;-78
2023/10/18 00:08:39;;;;;;;27.27;25.17;;;;;;;;;;5070445;28;20199;-78
2023/10/18 00:11:06;;;;;;;27.77;25.37;;;;;;;;;;5070126;28;20247;-79
2023/10/18 00:13:34;;;;;;;28.30;26.40;;;;;;;;;;5070439;28;20428;-78
2023/10/18 00:16:02;;;;;;;28.37;26.33;;;;;;;;;;5068939;28;20460;-79
2023/10/18 00:18:29;;;;;;;28.63;26.40;;;;;;;;;;5069960;28;20469;-78
2023/10/18 00:21:00;;;;;;;27.83;25.55;;;;;;;;;;5070559;28;20427;-78
2023/10/18 00:23:28;;;;;;;29.00;26.43;;;;;;;;;;5070331;28;20235;-78
2023/10/18 00:25:55;;;;;;;28.27;26.13;;;;;;;;;;5069113;28;20553;-78
2023/10/18 00:28:22;;;;;;;30.57;28.10;;;;;;;;;;5073578;28;20242;-79
2023/10/18 00:30:52;;;;;;;29.57;27.30;;;;;;;;;;5074183;28;20854;-78
2023/10/18 00:33:19;;;;;;;29.02;26.90;;;;;;;;;;5057442;28;20454;-78
2023/10/18 00:35:47;;;;;;;29.35;26.85;;;;;;;;;;5053209;28;20212;-79
2023/10/18 00:38:17;;;;;;;28.80;26.70;;;;;;;;;;5053799;28;20235;-78
2023/10/18 00:40:45;;;;;;;29.47;26.80;;;;;;;;;;5053998;28;20212;-78
2023/10/18 00:43:19;;;;;;;28.50;26.43;;;;;;;;;;5053680;28;21022;-79
2023/10/18 00:45:47;;;;;;;30.97;28.43;;;;;;;;;;5052998;28;21124;-78
2023/10/18 00:48:16;;;;;;;28.73;26.20;;;;;;;;;;5053620;28;20564;-78
2023/10/18 00:50:45;;;;;;;29.27;27.07;;;;;;;;;;5053698;28;20208;-78
2023/10/18 00:53:13;;;;;;;30.03;27.83;;;;;;;;;;5053597;28;20494;-79
2023/10/18 00:55:40;;;;;;;30.77;28.38;;;;;;;;;;5052591;28;20425;-78
2023/10/18 00:58:08;;;;;;;31.43;28.80;;;;;;;;;;5053648;28;20239;-78
2023/10/18 01:00:37;;;;;;;30.97;28.53;;;;;;;;;;5070352;28;20476;-78
2023/10/18 01:03:09;;;;;;;30.80;28.33;;;;;;;;;;5073382;28;20416;-78
2023/10/18 01:05:37;;;;;;;29.13;27.03;;;;;;;;;;5072470;28;20526;-78
2023/10/18 01:08:10;;;;;;;30.25;27.92;;;;;;;;;;5074016;28;20447;-79
2023/10/18 01:10:37;;;;;;;31.70;29.10;;;;;;;;;;5074097;28;20583;-79
2023/10/18 01:13:05;;;;;;;31.10;28.63;;;;;;;;;;5073464;28;20634;-77
2023/10/18 01:15:33;;;;;;;31.88;28.77;;;;;;;;;;5072620;28;20460;-79
2023/10/18 01:18:00;;;;;;;29.50;27.33;;;;;;;;;;5073297;28;20236;-79
2023/10/18 01:20:38;;;;;;;32.20;29.23;;;;;;;;;;5073449;28;20442;-78
2023/10/18 01:23:07;;;;;;;31.13;28.73;;;;;;;;;;5073205;28;20573;-78
2023/10/18 01:25:35;;;;;;;31.40;28.93;;;;;;;;;;5072598;28;20467;-78
2023/10/18 01:28:02;;;;;;;30.40;28.00;;;;;;;;;;5072496;28;20561;-78
2023/10/18 01:30:30;;;;;;;31.50;29.00;;;;;;;;;;5073226;28;20449;-78
2023/10/18 01:32:57;;;;;;;30.67;28.30;;;;;;;;;;5073052;28;20484;-77
2023/10/18 01:35:24;;;;;;;31.70;29.30;;;;;;;;;;5070065;28;20749;-78
2023/10/18 01:37:53;;;;;;;31.50;28.90;;;;;;;;;;5052692;28;20244;-79
2023/10/18 01:40:29;;;;;;;31.10;28.70;;;;;;;;;;5052524;28;20424;-78
2023/10/18 01:42:58;;;;;;;30.40;27.80;;;;;;;;;;5052928;28;20496;-78
2023/10/18 01:45:30;;;;;;;31.80;29.20;;;;;;;;;;5071966;28;20794;-78
2023/10/18 01:47:57;;;;;;;31.97;29.47;;;;;;;;;;5072297;28;20504;-78
2023/10/18 01:50:26;;;;;;;31.27;28.45;;;;;;;;;;5072437;28;20983;-78
2023/10/18 01:52:54;;;;;;;31.57;29.07;;;;;;;;;;5072668;28;20243;-78
2023/10/18 01:55:22;;;;;;;32.78;30.00;;;;;;;;;;5072224;28;20519;-78
2023/10/18 01:57:49;;;;;;;33.15;29.95;;;;;;;;;;5072461;28;20265;-78
2023/10/18 02:00:25;;;;;;;32.93;30.10;;;;;;;;;;5071856;28;20261;-78
2023/10/18 02:02:52;;;;;;;32.75;30.15;;;;;;;;;;5060293;28;20442;-78
2023/10/18 02:05:19;;;;;;;31.83;29.13;;;;;;;;;;5051939;28;20231;-78
2023/10/18 02:07:48;;;;;;;31.70;29.30;;;;;;;;;;5052630;28;20315;-78
2023/10/18 02:10:21;;;;;;;31.40;29.00;;;;;;;;;;5052268;28;20512;-78
2023/10/18 02:12:48;;;;;;;30.63;28.40;;;;;;;;;;5052707;28;20239;-78
2023/10/18 02:15:15;;;;;;;31.35;28.83;;;;;;;;;;5052303;28;20192;-79
2023/10/18 02:17:43;;;;;;;31.25;28.85;;;;;;;;;;5052730;28;20232;-79
2023/10/18 02:20:16;;;;;;;31.00;28.63;;;;;;;;;;5052687;28;20242;-79
2023/10/18 02:22:46;;;;;;;32.20;29.70;;;;;;;;;;5052364;28;21183;-80
2023/10/18 02:25:24;;;;;;;31.30;28.65;;;;;;;;;;5052373;28;20204;-78
2023/10/18 02:27:51;;;;;;;31.05;28.45;;;;;;;;;;5052558;28;20220;-79
2023/10/18 02:30:19;;;;;;;31.13;28.03;;;;;;;;;;5052503;28;20855;-78
2023/10/18 02:32:48;;;;;;;30.60;28.23;;;;;;;;;;5052441;28;20464;-78
2023/10/18 02:35:20;;;;;;;29.58;27.17;;;;;;;;;;5051767;28;20239;-79
2023/10/18 02:37:47;;;;;;;30.75;28.27;;;;;;;;;;5052079;28;20292;-79
2023/10/18 02:40:29;;;;;;;29.98;27.67;;;;;;;;;;5052044;28;20680;-79
2023/10/18 02:42:58;;;;;;;30.67;28.37;;;;;;;;;;5056437;28;20214;-79
2023/10/18 02:45:30;;;;;;;30.92;28.35;;;;;;;;;;5071509;28;20450;-79
2023/10/18 02:48:00;;;;;;;32.07;29.47;;;;;;;;;;5071657;28;20219;-78
2023/10/18 02:50:27;;;;;;;29.93;27.70;;;;;;;;;;5069984;28;20468;-78
2023/10/18 02:52:54;;;;;;;31.92;29.30;;;;;;;;;;5075642;28;21306;-80
2023/10/18 02:55:21;;;;;;;32.97;30.42;;;;;;;;;;5072848;28;20215;-79
2023/10/18 02:57:49;;;;;;;32.37;29.77;;;;;;;;;;5071968;28;20563;-79
2023/10/18 03:00:17;;;;;;;30.70;28.13;;;;;;;;;;5071244;28;20552;-78
2023/10/18 03:02:45;;;;;;;32.03;29.63;;;;;;;;;;5071526;28;20458;-78
2023/10/18 03:05:13;;;;;;;31.37;28.93;;;;;;;;;;5070744;28;20421;-78
2023/10/18 03:07:41;;;;;;;32.15;29.55;;;;;;;;;;5071124;28;20444;-78
2023/10/18 03:10:13;;;;;;;31.17;28.48;;;;;;;;;;5071050;28;20220;-78
2023/10/18 03:12:44;;;;;;;32.30;29.60;;;;;;;;;;5071227;28;20281;-78
2023/10/18 03:15:12;;;;;;;33.05;30.15;;;;;;;;;;5070882;28;20763;-79
2023/10/18 03:17:39;;;;;;;31.30;28.70;;;;;;;;;;5070531;28;20693;-81
2023/10/18 03:20:17;;;;;;;30.73;28.30;;;;;;;;;;5070971;28;20212;-77
2023/10/18 03:22:45;;;;;;;32.15;29.58;;;;;;;;;;5070824;28;20950;-78
2023/10/18 03:25:16;;;;;;;29.85;27.58;;;;;;;;;;5070567;28;20208;-79
2023/10/18 03:27:50;;;;;;;31.20;28.40;;;;;;;;;;5071212;28;20302;-78
2023/10/18 03:30:18;;;;;;;32.00;29.60;;;;;;;;;;5071165;28;20199;-79
2023/10/18 03:32:49;;;;;;;31.52;28.70;;;;;;;;;;5071337;28;20207;-77
2023/10/18 03:35:20;;;;;;;33.40;30.55;;;;;;;;;;5070500;28;20282;-78
2023/10/18 03:37:48;;;;;;;30.60;28.13;;;;;;;;;;5070737;28;20235;-78
2023/10/18 03:40:19;;;;;;;33.55;30.35;;;;;;;;;;5070482;28;20210;-78
2023/10/18 03:42:46;;;;;;;31.98;29.48;;;;;;;;;;5070845;28;20261;-79
2023/10/18 03:45:20;;;;;;;31.23;28.80;;;;;;;;;;5070152;28;20239;-78
2023/10/18 03:47:57;;;;;;;30.57;28.17;;;;;;;;;;5070510;28;20227;-78
2023/10/18 03:50:29;;;;;;;32.33;29.73;;;;;;;;;;5070416;28;20519;-79
2023/10/18 03:52:57;;;;;;;32.17;29.13;;;;;;;;;;5070105;28;21041;-78
2023/10/18 03:55:36;;;;;;;32.63;29.75;;;;;;;;;;5070022;28;20207;-79
2023/10/18 03:58:04;;;;;;;31.87;29.27;;;;;;;;;;5070458;28;20246;-77
2023/10/18 04:00:38;;;;;;;31.33;28.92;;;;;;;;;;5070553;28;20437;-78
2023/10/18 04:03:09;;;;;;;32.17;29.38;;;;;;;;;;5069851;28;20278;-78
2023/10/18 04:05:41;;;;;;;32.72;29.98;;;;;;;;;;5069528;28;20188;-78
2023/10/18 04:08:13;;;;;;;30.80;28.10;;;;;;;;;;5070175;28;20249;-79
2023/10/18 04:10:40;;;;;;;32.65;30.02;;;;;;;;;;5070187;28;20215;-78
2023/10/18 04:13:12;;;;;;;32.23;29.63;;;;;;;;;;5070441;28;20213;-78
2023/10/18 04:15:41;;;;;;;32.00;29.17;;;;;;;;;;5069828;28;20776;-78
2023/10/18 04:18:12;;;;;;;32.65;30.10;;;;;;;;;;5070199;28;20227;-78
2023/10/18 04:20:40;;;;;;;31.48;28.73;;;;;;;;;;5070466;28;20195;-78
2023/10/18 04:23:14;;;;;;;32.35;29.75;;;;;;;;;;5070010;28;20280;-78
2023/10/18 04:25:42;;;;;;;34.08;31.40;;;;;;;;;;5069785;28;20209;-78
2023/10/18 04:28:11;;;;;;;32.80;30.10;;;;;;;;;;5069911;28;20703;-77
2023/10/18 04:30:38;;;;;;;33.25;30.40;;;;;;;;;;5069571;28;20440;-78
2023/10/18 04:33:24;;;;;;;35.27;32.17;;;;;;;;;;5069862;28;20695;-77
2023/10/18 04:35:55;;;;;;;32.27;29.47;;;;;;;;;;5057539;28;20451;-79
2023/10/18 04:38:23;;;;;;;35.53;32.27;;;;;;;;;;5049994;28;20544;-78
2023/10/18 04:41:04;;;;;;;33.67;30.67;;;;;;;;;;5049772;28;21261;-78
2023/10/18 04:43:32;;;;;;;32.33;29.77;;;;;;;;;;5050164;28;20199;-77
2023/10/18 04:46:04;;;;;;;33.70;30.90;;;;;;;;;;5049355;28;20931;-79
2023/10/18 04:48:59;;;;;;;34.03;31.27;;;;;;;;;;5049836;28;20633;-78
2023/10/18 04:51:26;;;;;;;34.47;31.47;;;;;;;;;;5050252;28;20841;-78
2023/10/18 04:53:54;;;;;;;34.60;31.57;;;;;;;;;;5049560;28;20474;-77
2023/10/18 04:56:29;;;;;;;33.30;30.65;;;;;;;;;;5049892;28;20909;-78
2023/10/18 04:58:59;;;;;;;33.10;30.10;;;;;;;;;;5049951;28;20231;-78
2023/10/18 05:01:32;;;;;;;31.30;28.70;;;;;;;;;;5049568;28;20469;-78
2023/10/18 05:04:01;;;;;;;34.00;30.92;;;;;;;;;;5049397;28;20210;-78
2023/10/18 05:06:29;;;;;;;34.00;31.10;;;;;;;;;;5050033;28;20263;-78
2023/10/18 05:08:56;;;;;;;32.75;29.85;;;;;;;;;;5050221;28;20204;-78
2023/10/18 05:11:26;;;;;;;32.40;29.80;;;;;;;;;;5049289;28;20306;-78
2023/10/18 05:13:56;;;;;;;31.48;28.95;;;;;;;;;;5050218;28;20291;-78
2023/10/18 05:16:26;;;;;;;31.85;29.25;;;;;;;;;;5067589;28;20321;-77
2023/10/18 05:18:54;;;;;;;30.70;28.33;;;;;;;;;;5073476;28;20223;-79
2023/10/18 05:21:21;;;;;;;32.10;29.30;;;;;;;;;;5071838;28;20980;-78
2023/10/18 05:23:50;;;;;;;31.45;28.95;;;;;;;;;;5072910;28;20282;-78
2023/10/18 05:26:18;;;;;;;29.42;27.10;;;;;;;;;;5073095;28;20250;-78
2023/10/18 05:28:52;;;;;;;30.57;28.07;;;;;;;;;;5054532;28;20542;-78
2023/10/18 05:34:18;;;;;;;31.50;28.90;;;;;;;;;;5051917;28;20223;-79
2023/10/18 05:36:55;;;;;;;30.02;27.38;;;;;;;;;;5053507;28;20618;-78
2023/10/18 05:39:29;;;;;;;28.33;26.17;;;;;;;;;;5054698;28;20216;-78
2023/10/18 05:42:03;;;;;;;27.40;25.40;;;;;;;;;;5058979;28;20204;-79
2023/10/18 05:44:31;;;;;;;26.77;24.77;;;;;;;;;;5052096;28;20409;-78
2023/10/18 05:46:59;;;;;;;27.63;25.60;;;;;;;;;;5051207;28;20235;-78
2023/10/18 05:49:28;;;;;;;27.10;25.10;;;;;;;;;;5052198;28;20303;-78
2023/10/18 05:51:58;;;;;;;26.15;24.25;;;;;;;;;;5052587;28;20894;-77
2023/10/18 05:54:28;;;;;;;25.90;24.10;;;;;;;;;;5052372;28;20196;-77
2023/10/18 05:56:56;;;;;;;27.20;25.13;;;;;;;;;;5052669;28;20553;-78
2023/10/18 05:59:31;;;;;;;26.23;24.25;;;;;;;;;;5051982;28;20550;-78
2023/10/18 06:02:01;;;;;;;25.37;23.50;;;;;;;;;;5052092;28;20466;-78
2023/10/18 06:04:37;;;;;;;26.65;24.75;;;;;;;;;;5052240;28;20774;-77
2023/10/18 06:07:09;;;;;;;24.98;23.25;;;;;;;;;;5052189;28;20259;-78
2023/10/18 06:09:46;;;;;;;26.20;24.17;;;;;;;;;;5051746;28;20581;-78
2023/10/18 06:12:15;;;;;;;25.20;23.40;;;;;;;;;;5052165;28;20490;-78
2023/10/18 06:14:44;;;;;;;26.23;24.27;;;;;;;;;;5051606;28;20549;-78
2023/10/18 06:17:19;;;;;;;24.45;22.85;;;;;;;;;;5051938;28;20805;-79
2023/10/18 06:19:50;;;;;;;25.50;23.30;;;;;;;;;;5051753;28;20735;-77
2023/10/18 06:22:27;;;;;;;24.50;22.90;;;;;;;;;;5052421;28;20430;-78
2023/10/18 06:24:55;;;;;;;26.63;24.70;;;;;;;;;;5051897;28;20204;-78
2023/10/18 06:27:23;;;;;;;25.60;23.60;;;;;;;;;;5052345;28;20477;-77
2023/10/18 06:29:53;;;;;;;25.25;23.38;;;;;;;;;;5051731;28;20615;-78
2023/10/18 06:32:24;;;;;;;24.37;22.67;;;;;;;;;;5052380;28;20196;-79
2023/10/18 06:34:56;;;;;;;23.33;21.83;;;;;;;;;;5051644;28;20434;-78
2023/10/18 06:37:24;;;;;;;23.80;22.17;;;;;;;;;;5052341;28;20540;-78
2023/10/18 06:39:55;;;;;;;26.48;24.58;;;;;;;;;;5051714;28;20473;-77
2023/10/18 06:42:26;;;;;;;25.65;23.63;;;;;;;;;;5051969;28;20212;-79
2023/10/18 06:44:54;;;;;;;26.10;24.30;;;;;;;;;;5051792;28;20189;-78
2023/10/18 06:47:30;;;;;;;26.30;24.40;;;;;;;;;;5051856;28;20536;-78
2023/10/18 06:49:59;;;;;;;27.67;25.67;;;;;;;;;;5051576;28;20413;-78
2023/10/18 06:52:30;;;;;;;27.67;25.60;;;;;;;;;;5051464;28;20546;-77
2023/10/18 06:54:57;;;;;;;27.90;25.77;;;;;;;;;;5051024;28;20431;-77
2023/10/18 06:57:35;;;;;;;27.60;25.70;;;;;;;;;;5052301;28;20978;-78
2023/10/18 07:00:07;;;;;;;26.60;24.63;;;;;;;;;;5071597;28;20854;-79
2023/10/18 07:02:37;;;;;;;27.57;25.47;;;;;;;;;;5071532;28;20653;-77
2023/10/18 07:05:06;;;;;;;25.77;23.80;;;;;;;;;;5070993;28;20452;-78
2023/10/18 07:07:37;;;;;;;27.63;25.33;;;;;;;;;;5071352;28;20476;-78
2023/10/18 07:10:05;;;;;;;27.65;25.75;;;;;;;;;;5071299;28;20515;-77
2023/10/18 07:12:44;;;;;;;26.47;24.47;;;;;;;;;;5070935;28;20211;-79
2023/10/18 07:15:16;;;;;;;26.50;24.60;;;;;;;;;;5056684;28;20819;-77
2023/10/18 07:17:47;;;;;;;29.60;27.47;;;;;;;;;;5051112;28;20473;-78
2023/10/18 07:20:16;;;;;;;26.30;24.30;;;;;;;;;;5053110;28;20498;-78
2023/10/18 07:22:45;;;;;;;27.73;25.63;;;;;;;;;;5067605;28;20519;-79
2023/10/18 07:25:19;;;;;;;26.77;24.87;;;;;;;;;;5070365;28;20892;-78
2023/10/18 07:27:46;;;;;;;27.92;25.55;;;;;;;;;;5067903;28;20577;-79
2023/10/18 07:30:15;;;;;;;27.33;25.40;;;;;;;;;;5060724;28;20651;-78
2023/10/18 07:32:44;;;;;;;27.20;25.20;;;;;;;;;;5063161;28;20956;-78
2023/10/18 07:35:12;;;;;;;27.50;25.40;;;;;;;;;;5061634;28;21003;-77
2023/10/18 07:37:43;;;;;;;26.83;25.03;;;;;;;;;;5066621;28;20793;-80
2023/10/18 07:40:19;;;;;;;27.17;24.97;;;;;;;;;;5072471;28;20837;-79
2023/10/18 07:42:50;;;;;;;27.53;25.63;;;;;;;;;;5052850;28;20489;-81
2023/10/18 07:45:17;;;;;;;27.88;25.88;;;;;;;;;;5057620;28;20496;-80
2023/10/18 07:47:44;;;;;;;26.27;24.47;;;;;;;;;;5057759;28;20279;-82
2023/10/18 07:52:58;;;;;;;27.57;25.47;;;;;;;;;;5053378;28;20382;-81
2023/10/18 07:55:27;;;;;;;27.17;25.13;;;;;;;;;;5053975;28;20457;-81
2023/10/18 07:57:54;;;;;;;27.30;25.20;;;;;;;;;;5059977;28;20479;-80
2023/10/18 08:00:22;;;;;;;26.77;24.77;;;;;;;;;;5055857;28;20811;-82
2023/10/18 08:02:49;;;;;;;26.00;24.30;;;;;;;;;;5054747;28;20467;-81
2023/10/18 08:05:19;;;;;;;26.03;24.33;;;;;;;;;;5055066;28;20897;-83
2023/10/18 08:07:50;;;;;;;27.50;25.50;;;;;;;;;;5057824;28;21042;-84
2023/10/18 08:10:19;;;;;;;26.90;24.90;;;;;;;;;;5058871;28;20458;-84
2023/10/18 08:12:48;;;;;;;27.43;25.13;;;;;;;;;;5054008;28;20536;-73
2023/10/18 08:15:17;;;;;;;26.50;24.60;;;;;;;;;;5048626;28;20462;-76
2023/10/18 08:17:44;;;;;;;26.87;24.77;;;;;;;;;;5049705;28;20536;-75
2023/10/18 08:23:05;;;;;;;25.97;24.37;;;;;;;;;;5051122;28;20385;-80
2023/10/18 08:25:34;;;;;;;27.37;25.47;;;;;;;;;;5053138;28;20512;-78
2023/10/18 08:28:06;;;;;;;27.63;25.77;;;;;;;;;;5052769;28;20487;-81
2023/10/18 08:31:02;;;;;;;30.43;28.03;;;;;;;;;;5051093;28;21173;-78
2023/10/18 08:33:26;;;;;;;29.10;27.10;;;;;;;;;;5049731;28;20556;-76
2023/10/18 08:35:58;;;;;;;29.23;27.13;;;;;;;;;;5049620;28;20424;-83
2023/10/18 08:38:27;;;;;;;28.47;26.47;;;;;;;;;;5051235;28;21014;-80
2023/10/18 08:41:11;;;;;;;31.23;28.73;;;;;;;;;;5053480;28;20449;-81
2023/10/18 08:43:44;;;;;;;28.40;26.30;;;;;;;;;;5050661;28;20402;-80
2023/10/18 08:46:11;;;;;;;27.47;25.63;;;;;;;;;;5052285;28;20489;-80
2023/10/18 08:48:40;;;;;;;30.03;27.83;;;;;;;;;;5054639;28;20457;-83
2023/10/18 08:51:08;;;;;;;29.40;27.50;;;;;;;;;;5054490;28;20442;-77
2023/10/18 08:53:41;;;;;;;28.93;26.80;;;;;;;;;;5057970;28;20919;-82
2023/10/18 08:56:08;;;;;;;27.87;25.57;;;;;;;;;;5062620;28;20450;-78
2023/10/18 08:58:37;;;;;;;28.43;26.33;;;;;;;;;;5058827;28;20490;-78
2023/10/18 09:01:05;;;;;;;28.00;25.93;;;;;;;;;;5053200;28;20441;-76
2023/10/18 09:03:32;;;;;;;28.37;26.30;;;;;;;;;;5052216;28;20467;-76
2023/10/18 09:06:04;;;;;;;27.67;25.67;;;;;;;;;;5057844;28;20450;-77
2023/10/18 09:08:35;;;;;;;27.50;24.83;;;;;;;;;;5058476;28;20442;-77
2023/10/18 09:11:05;;;;;;;28.07;25.97;;;;;;;;;;5054729;28;20466;-77
2023/10/18 09:13:41;;;;;;;29.00;26.83;;;;;;;;;;5053100;28;20429;-77
2023/10/18 09:16:11;;;;;;;27.33;25.43;;;;;;;;;;5052337;28;20437;-77
2023/10/18 09:18:39;;;;;;;28.23;26.03;;;;;;;;;;5053383;28;20457;-86
2023/10/18 09:21:17;;;;;;;27.40;25.47;;;;;;;;;;5057313;28;20454;-80
2023/10/18 09:23:44;;;;;;;26.60;24.60;;;;;;;;;;5056456;28;20483;-82
2023/10/18 09:26:18;;;;;;;26.90;24.80;;;;;;;;;;5055980;28;20458;-81
2023/10/18 09:28:46;;;;;;;25.40;23.70;;;;;;;;;;5052618;28;20436;-77
2023/10/18 09:31:18;;;;;;;26.20;24.57;;;;;;;;;;5065495;28;20973;-80
2023/10/18 09:33:49;;;;;;;26.30;24.40;;;;;;;;;;5076092;28;20520;-79
2023/10/18 09:36:20;;;;;;;25.83;24.00;;;;;;;;;;5075901;28;20433;-82
2023/10/18 09:38:48;;;;;;;24.47;22.87;;;;;;;;;;5071324;28;20977;-79
2023/10/18 09:41:17;;;;;;;25.87;23.83;;;;;;;;;;5059870;28;20452;-76
2023/10/18 09:43:44;;;;;;;25.20;23.50;;;;;;;;;;5053282;28;20524;-78
2023/10/18 09:46:13;;;;;;;26.07;24.27;;;;;;;;;;5052098;28;20515;-78
2023/10/18 09:48:42;;;;;;;27.00;24.73;;;;;;;;;;5053183;28;20432;-77
2023/10/18 09:51:10;;;;;;;26.43;24.23;;;;;;;;;;5054134;28;20498;-76
2023/10/18 09:53:42;;;;;;;25.33;23.73;;;;;;;;;;5052594;28;20949;-77
2023/10/18 09:56:10;;;;;;;27.30;25.20;;;;;;;;;;5052459;28;20475;-76
2023/10/18 09:58:42;;;;;;;25.17;23.60;;;;;;;;;;5053383;28;20512;-77
2023/10/18 10:01:14;;;;;;;25.77;23.97;;;;;;;;;;5052255;28;20431;-78
2023/10/18 10:03:50;;;;;;;26.10;24.40;;;;;;;;;;5052500;28;20460;-76
2023/10/18 10:06:17;;;;;;;25.50;23.80;;;;;;;;;;5053133;28;20900;-76
2023/10/18 10:08:47;;;;;;;26.93;25.03;;;;;;;;;;5051903;28;20456;-77
2023/10/18 10:11:14;;;;;;;27.07;24.97;;;;;;;;;;5051851;28;20822;-77
2023/10/18 10:13:44;;;;;;;26.20;24.37;;;;;;;;;;5051503;28;20954;-77
2023/10/18 10:16:13;;;;;;;26.83;24.93;;;;;;;;;;5051654;28;20432;-76
2023/10/18 10:18:43;;;;;;;26.77;24.87;;;;;;;;;;5051528;28;20961;-76
2023/10/18 10:21:12;;;;;;;26.63;24.73;;;;;;;;;;5052159;28;20446;-77
2023/10/18 10:23:39;;;;;;;27.50;25.47;;;;;;;;;;5051819;28;20462;-76
2023/10/18 10:26:15;;;;;;;27.50;25.60;;;;;;;;;;5052003;28;20428;-77
2023/10/18 10:31:50;;;;;;;27.50;25.63;;;;;;;;;;5071569;28;20421;-76
2023/10/18 10:34:24;;;;;;;25.70;24.00;;;;;;;;;;5048833;28;20449;-77
2023/10/18 10:36:51;;;;;;;26.33;24.53;;;;;;;;;;5057708;28;20476;-78
2023/10/18 10:39:31;;;;;;;26.67;24.77;;;;;;;;;;5071069;28;20455;-76
2023/10/18 10:42:08;;;;;;;25.33;23.63;;;;;;;;;;5073087;28;20458;-74
2023/10/18 10:44:50;;;;;;;26.73;24.90;;;;;;;;;;5071421;28;20952;-76
2023/10/18 10:47:30;;;;;;;24.87;23.30;;;;;;;;;;5071246;28;20501;-77
2023/10/18 10:50:03;;;;;;;27.17;25.17;;;;;;;;;;5076347;28;20428;-80
2023/10/18 10:52:31;;;;;;;28.00;26.00;;;;;;;;;;5074670;28;20521;-76
2023/10/18 10:55:05;;;;;;;27.83;25.90;;;;;;;;;;5072273;28;20446;-78
2023/10/18 10:57:35;;;;;;;28.60;26.33;;;;;;;;;;5072612;28;20573;-76
2023/10/18 11:00:22;;;;;;;26.87;25.07;;;;;;;;;;5072142;28;20508;-74
2023/10/18 11:02:54;;;;;;;27.10;25.30;;;;;;;;;;5072923;28;20538;-82
2023/10/18 11:05:25;;;;;;;27.03;25.10;;;;;;;;;;5073522;28;20437;-76
2023/10/18 11:07:54;;;;;;;27.40;25.70;;;;;;;;;;5071035;28;20545;-76
2023/10/18 11:10:21;;;;;;;26.37;24.30;;;;;;;;;;5071997;28;20468;-82
2023/10/18 11:12:48;;;;;;;26.43;24.57;;;;;;;;;;5075136;28;20420;-80
2023/10/18 11:15:20;;;;;;;25.20;23.70;;;;;;;;;;5072729;28;20446;-80
2023/10/18 11:17:49;;;;;;;25.07;23.57;;;;;;;;;;5075638;28;20910;-80
2023/10/18 11:20:24;;;;;;;25.37;23.77;;;;;;;;;;5061979;28;20569;-79
2023/10/18 11:22:51;;;;;;;24.83;23.20;;;;;;;;;;5052504;28;20575;-80
2023/10/18 11:25:20;;;;;;;24.13;22.60;;;;;;;;;;5050792;28;20941;-77
2023/10/18 11:27:48;;;;;;;24.83;23.20;;;;;;;;;;5050816;28;20466;-77
2023/10/18 11:30:17;;;;;;;26.23;24.43;;;;;;;;;;5050683;28;20469;-77
2023/10/18 11:32:46;;;;;;;27.10;25.30;;;;;;;;;;5050743;28;20421;-77
2023/10/18 11:35:16;;;;;;;26.50;24.80;;;;;;;;;;5050282;28;20443;-76
2023/10/18 11:37:47;;;;;;;24.70;23.20;;;;;;;;;;5060836;28;20482;-76
2023/10/18 11:40:15;;;;;;;26.50;24.20;;;;;;;;;;5069057;28;20615;-76
2023/10/18 11:42:55;;;;;;;26.30;24.20;;;;;;;;;;5051803;28;20512;-77
2023/10/18 11:45:27;;;;;;;25.97;24.33;;;;;;;;;;5054372;28;20469;-77
2023/10/18 11:47:55;;;;;;;26.27;24.57;;;;;;;;;;5050108;28;21264;-78
2023/10/18 11:50:23;;;;;;;26.10;24.40;;;;;;;;;;5050138;28;20992;-76
2023/10/18 11:52:52;;;;;;;25.83;24.13;;;;;;;;;;5050376;28;20421;-76
2023/10/18 11:55:20;;;;;;;26.07;24.43;;;;;;;;;;5049853;28;20450;-77
2023/10/18 11:57:47;;;;;;;26.90;24.70;;;;;;;;;;5050235;28;20477;-76
2023/10/18 12:00:26;;;;;;;26.53;24.73;;;;;;;;;;5050234;28;20465;-76
2023/10/18 12:02:54;;;;;;;26.20;24.37;;;;;;;;;;5050084;28;20484;-77
2023/10/18 12:05:27;;;;;;;27.10;25.27;;;;;;;;;;5049968;28;20433;-76
2023/10/18 12:08:01;;;;;;;24.80;23.30;;;;;;;;;;5050098;28;20577;-76
2023/10/18 12:10:34;;;;;;;27.27;25.57;;;;;;;;;;5050424;28;20428;-77
2023/10/18 12:13:02;;;;;;;24.40;22.90;;;;;;;;;;5050557;28;20413;-77
2023/10/18 12:15:30;;;;;;;25.37;23.77;;;;;;;;;;5050560;28;20425;-75
2023/10/18 12:18:00;;;;;;;25.83;24.07;;;;;;;;;;5050329;28;20582;-76
2023/10/18 12:20:34;;;;;;;25.60;23.97;;;;;;;;;;5050909;28;20471;-75
2023/10/18 12:23:03;;;;;;;26.00;24.20;;;;;;;;;;5049760;28;20477;-76
2023/10/18 12:25:32;;;;;;;25.67;24.07;;;;;;;;;;5049378;28;20476;-75
2023/10/18 12:28:01;;;;;;;25.13;23.53;;;;;;;;;;5049516;28;21155;-75
2023/10/18 12:30:32;;;;;;;24.70;23.10;;;;;;;;;;5050006;28;20417;-76
2023/10/18 12:33:04;;;;;;;25.97;24.20;;;;;;;;;;5060762;28;20461;-81
2023/10/18 12:35:31;;;;;;;24.73;22.93;;;;;;;;;;5075916;28;21027;-83
2023/10/18 12:37:58;;;;;;;25.27;23.67;;;;;;;;;;5076701;28;20469;-81
2023/10/18 12:40:31;;;;;;;26.20;24.20;;;;;;;;;;5070151;28;20485;-75
2023/10/18 12:43:00;;;;;;;25.57;23.87;;;;;;;;;;5070178;28;20916;-86
2023/10/18 12:45:27;;;;;;;25.23;23.50;;;;;;;;;;5070228;28;20457;-74
2023/10/18 12:47:55;;;;;;;23.70;22.30;;;;;;;;;;5069622;28;20839;-75
2023/10/18 12:50:27;;;;;;;25.27;23.67;;;;;;;;;;5069848;28;20445;-74
2023/10/18 12:52:56;;;;;;;24.20;22.60;;;;;;;;;;5069680;28;20430;-76
2023/10/18 12:55:32;;;;;;;25.40;23.80;;;;;;;;;;5068365;28;20457;-76
2023/10/18 12:58:00;;;;;;;24.93;23.30;;;;;;;;;;5068974;28;20556;-76
2023/10/18 13:00:32;;;;;;;24.90;23.30;;;;;;;;;;5069431;28;20808;-75
2023/10/18 13:05:48;;;;;;;26.53;24.73;;;;;;;;;;5063498;28;20519;-74
2023/10/18 13:08:22;;;;;;;24.90;23.40;;;;;;;;;;5069420;28;20574;-75
2023/10/18 13:10:59;;;;;;;24.63;23.13;;;;;;;;;;5069179;28;20974;-75
2023/10/18 13:13:30;;;;;;;25.27;23.57;;;;;;;;;;5069643;28;20429;-75
2023/10/18 13:15:57;;;;;;;24.90;23.30;;;;;;;;;;5069379;28;20409;-75
2023/10/18 13:18:25;;;;;;;24.50;22.90;;;;;;;;;;5069759;28;20447;-76
2023/10/18 13:20:55;;;;;;;24.60;23.03;;;;;;;;;;5070148;28;20496;-75
2023/10/18 13:23:27;;;;;;;24.97;23.37;;;;;;;;;;5050826;28;20809;-74
2023/10/18 13:25:54;;;;;;;24.63;22.83;;;;;;;;;;5048799;28;20443;-75
2023/10/18 13:28:33;;;;;;;24.73;23.23;;;;;;;;;;5049000;28;21222;-75
2023/10/18 13:31:04;;;;;;;24.87;23.20;;;;;;;;;;5049033;28;20428;-75
2023/10/18 13:33:33;;;;;;;25.37;23.53;;;;;;;;;;5048532;28;20923;-75
2023/10/18 13:36:01;;;;;;;25.90;24.20;;;;;;;;;;5049827;28;20466;-77
2023/10/18 13:38:28;;;;;;;24.53;23.13;;;;;;;;;;5054874;28;20978;-75
2023/10/18 13:40:56;;;;;;;26.20;24.30;;;;;;;;;;5051563;28;20474;-76
2023/10/18 13:43:24;;;;;;;25.00;23.40;;;;;;;;;;5052364;28;21018;-76
2023/10/18 13:45:57;;;;;;;23.30;21.80;;;;;;;;;;5052255;28;20458;-77
2023/10/18 13:48:26;;;;;;;24.40;22.90;;;;;;;;;;5052480;28;20545;-75
2023/10/18 13:50:58;;;;;;;24.53;22.93;;;;;;;;;;5052429;28;20468;-74
2023/10/18 13:53:25;;;;;;;23.57;22.07;;;;;;;;;;5052750;28;20398;-74
2023/10/18 13:55:57;;;;;;;26.27;24.67;;;;;;;;;;5052304;28;20541;-75
2023/10/18 13:58:24;;;;;;;24.67;23.13;;;;;;;;;;5052660;28;20467;-75
2023/10/18 14:00:51;;;;;;;24.23;22.83;;;;;;;;;;5052499;28;20445;-75
2023/10/18 14:03:19;;;;;;;24.33;22.83;;;;;;;;;;5052418;28;20453;-75
2023/10/18 14:05:48;;;;;;;23.17;21.57;;;;;;;;;;5052151;28;20485;-75
2023/10/18 14:08:18;;;;;;;24.37;22.87;;;;;;;;;;5052322;28;20470;-75
2023/10/18 14:10:45;;;;;;;23.90;22.50;;;;;;;;;;5063082;28;20466;-76
2023/10/18 14:13:12;;;;;;;24.70;23.00;;;;;;;;;;5070925;28;20423;-75
2023/10/18 14:15:39;;;;;;;24.97;23.27;;;;;;;;;;5060589;28;20445;-75
2023/10/18 14:18:06;;;;;;;26.27;24.10;;;;;;;;;;5065885;28;20481;-76
2023/10/18 14:20:37;;;;;;;24.10;22.33;;;;;;;;;;5057807;28;20569;-74
2023/10/18 14:23:09;;;;;;;24.33;22.73;;;;;;;;;;5054965;28;20447;-76
2023/10/18 14:25:38;;;;;;;24.03;22.63;;;;;;;;;;5057451;28;20447;-75
2023/10/18 14:28:05;;;;;;;24.77;22.90;;;;;;;;;;5052079;28;21046;-75
2023/10/18 14:30:35;;;;;;;24.23;22.83;;;;;;;;;;5052061;28;20430;-75
2023/10/18 14:33:04;;;;;;;24.80;23.40;;;;;;;;;;5052260;28;20426;-78
2023/10/18 14:35:31;;;;;;;23.80;22.40;;;;;;;;;;5051444;28;20452;-75
2023/10/18 14:38:00;;;;;;;25.37;23.77;;;;;;;;;;5051863;28;20839;-76
2023/10/18 14:40:34;;;;;;;24.53;23.10;;;;;;;;;;5051688;28;20478;-75
2023/10/18 14:43:01;;;;;;;23.70;22.30;;;;;;;;;;5050479;28;20468;-73
2023/10/18 14:45:32;;;;;;;24.27;22.77;;;;;;;;;;5065454;28;20429;-78
2023/10/18 14:47:59;;;;;;;24.67;23.17;;;;;;;;;;5051679;28;20502;-75